createdAt,value
2023-05-13T00:00:40.319Z,12.60
2023-05-13T00:03:08.166Z,12.60
2023-05-13T00:05:36.352Z,12.60
2023-05-13T00:08:07.691Z,12.50
2023-05-13T00:10:36.297Z,12.40
2023-05-13T00:13:06.728Z,12.40
2023-05-13T00:15:34.521Z,12.40
2023-05-13T00:18:02.603Z,12.40
2023-05-13T00:20:30.822Z,12.30
2023-05-13T00:22:58.818Z,12.30
2023-05-13T00:25:26.742Z,12.20
2023-05-13T00:27:54.727Z,12.20
2023-05-13T00:30:24.552Z,12.20
2023-05-13T00:32:52.763Z,12.20
2023-05-13T00:35:21.105Z,12.10
2023-05-13T00:37:49.132Z,12.10
2023-05-13T00:40:21.408Z,12.00
2023-05-13T00:42:51.124Z,12.00
2023-05-13T00:45:22.101Z,11.90
2023-05-13T00:47:52.782Z,11.80
2023-05-13T00:50:25.414Z,11.70
2023-05-13T00:52:53.205Z,11.70
2023-05-13T00:55:21.568Z,11.60
2023-05-13T00:57:49.339Z,11.50
2023-05-13T01:00:20.386Z,11.50
2023-05-13T01:02:58.063Z,11.40
2023-05-13T01:05:39.070Z,11.40
2023-05-13T01:08:17.461Z,11.30
2023-05-13T01:10:51.245Z,11.20
2023-05-13T01:13:26.631Z,11.10
2023-05-13T01:16:00.640Z,11.10
2023-05-13T01:18:37.898Z,11.20
2023-05-13T01:21:11.736Z,11.20
2023-05-13T01:23:40.982Z,11.20
2023-05-13T01:26:09.973Z,11.10
2023-05-13T01:28:38.142Z,11.10
2023-05-13T01:31:11.105Z,11.10
2023-05-13T01:33:40.924Z,11.10
2023-05-13T01:36:09.951Z,11.10
2023-05-13T01:38:39.280Z,11.20
2023-05-13T01:41:08.525Z,11.20
2023-05-13T01:43:37.205Z,11.30
2023-05-13T01:46:05.432Z,11.30
2023-05-13T01:48:33.652Z,11.40
2023-05-13T01:51:01.695Z,11.50
2023-05-13T01:53:29.946Z,11.50
2023-05-13T01:55:58.364Z,11.50
2023-05-13T01:58:27.424Z,11.50
2023-05-13T02:00:57.859Z,11.50
2023-05-13T02:03:26.074Z,11.50
2023-05-13T02:05:54.436Z,11.50
2023-05-13T02:08:23.908Z,11.50
2023-05-13T02:11:01.085Z,11.40
2023-05-13T02:13:30.833Z,11.40
2023-05-13T02:15:58.787Z,11.30
2023-05-13T02:18:26.704Z,11.30
2023-05-13T02:20:54.992Z,11.30
2023-05-13T02:23:23.386Z,11.30
2023-05-13T02:25:52.087Z,11.20
2023-05-13T02:28:21.733Z,11.20
2023-05-13T02:30:51.273Z,11.10
2023-05-13T02:33:19.350Z,11.10
2023-05-13T02:35:47.344Z,11.00
2023-05-13T02:38:17.280Z,11.00
2023-05-13T02:40:45.267Z,10.90
2023-05-13T02:43:13.082Z,10.90
2023-05-13T02:45:43.214Z,10.80
2023-05-13T02:48:13.946Z,10.80
2023-05-13T02:50:43.540Z,10.70
2023-05-13T02:53:11.960Z,10.70
2023-05-13T02:55:39.906Z,10.70
2023-05-13T02:58:08.082Z,10.60
2023-05-13T03:00:36.386Z,10.50
2023-05-13T03:03:04.809Z,10.40
2023-05-13T03:05:34.088Z,10.40
2023-05-13T03:08:01.998Z,10.40
2023-05-13T03:10:30.065Z,10.40
2023-05-13T03:12:58.095Z,10.40
2023-05-13T03:15:25.818Z,10.40
2023-05-13T03:17:53.807Z,10.30
2023-05-13T03:20:22.214Z,10.30
2023-05-13T03:22:51.476Z,10.30
2023-05-13T03:25:21.020Z,10.30
2023-05-13T03:27:48.903Z,10.30
2023-05-13T03:30:16.960Z,10.20
2023-05-13T03:32:45.113Z,10.20
2023-05-13T03:35:13.214Z,10.10
2023-05-13T03:37:42.101Z,10.10
2023-05-13T03:40:13.168Z,10.00
2023-05-13T03:42:41.424Z,10.00
2023-05-13T03:45:11.440Z,10.00
2023-05-13T03:47:40.742Z,9.90
2023-05-13T03:50:10.096Z,10.00
2023-05-13T03:52:37.797Z,10.00
2023-05-13T03:55:07.201Z,10.10
2023-05-13T03:57:38.543Z,10.20
2023-05-13T04:00:07.962Z,10.20
2023-05-13T04:02:38.476Z,10.20
2023-05-13T04:05:07.050Z,10.20
2023-05-13T04:07:35.723Z,10.10
2023-05-13T04:10:03.558Z,10.10
2023-05-13T04:12:33.983Z,10.10
2023-05-13T04:15:03.530Z,10.10
2023-05-13T04:17:31.530Z,10.10
2023-05-13T04:19:59.555Z,10.10
2023-05-13T04:22:29.130Z,10.10
2023-05-13T04:24:57.481Z,10.10
2023-05-13T04:27:25.850Z,10.20
2023-05-13T04:29:56.560Z,10.20
2023-05-13T04:32:25.857Z,10.30
2023-05-13T04:34:54.349Z,10.30
2023-05-13T04:37:22.657Z,10.30
2023-05-13T04:39:50.926Z,10.40
2023-05-13T04:42:18.816Z,10.40
2023-05-13T04:44:47.111Z,10.50
2023-05-13T04:47:15.199Z,10.50
2023-05-13T04:49:44.609Z,10.60
2023-05-13T04:52:13.157Z,10.60
2023-05-13T04:54:41.625Z,10.70
2023-05-13T04:57:09.455Z,10.80
2023-05-13T04:59:37.483Z,10.90
2023-05-13T05:02:08.145Z,11.00
2023-05-13T05:04:36.039Z,11.10
2023-05-13T05:07:05.523Z,11.20
2023-05-13T05:09:34.576Z,11.20
2023-05-13T05:12:05.095Z,11.30
2023-05-13T05:14:33.325Z,11.30
2023-05-13T05:17:02.838Z,11.40
2023-05-13T05:19:37.207Z,11.40
2023-05-13T05:22:07.110Z,11.50
2023-05-13T05:24:35.038Z,11.60
2023-05-13T05:27:06.431Z,11.70
2023-05-13T05:29:35.118Z,11.70
2023-05-13T05:32:04.842Z,11.70
2023-05-13T05:34:34.367Z,11.80
2023-05-13T05:37:02.058Z,12.00
2023-05-13T05:39:33.616Z,12.10
2023-05-13T05:42:01.349Z,12.10
2023-05-13T05:44:31.741Z,12.20
2023-05-13T05:47:01.873Z,12.20
2023-05-13T05:49:30.363Z,12.30
2023-05-13T05:51:58.329Z,12.40
2023-05-13T05:54:26.654Z,12.50
2023-05-13T05:56:56.028Z,12.60
2023-05-13T05:59:24.777Z,12.70
2023-05-13T06:01:52.790Z,12.70
2023-05-13T06:04:20.907Z,12.80
2023-05-13T06:06:48.735Z,12.90
2023-05-13T06:09:17.232Z,13.00
2023-05-13T06:11:47.674Z,13.10
2023-05-13T06:14:18.673Z,13.20
2023-05-13T06:16:46.829Z,13.30
2023-05-13T06:19:15.253Z,13.30
2023-05-13T06:21:45.309Z,13.40
2023-05-13T06:24:16.637Z,13.50
2023-05-13T06:26:50.204Z,13.60
2023-05-13T06:29:22.248Z,13.60
2023-05-13T06:31:51.003Z,13.70
2023-05-13T06:34:18.753Z,13.80
2023-05-13T06:36:46.832Z,13.90
2023-05-13T06:39:16.647Z,14.00
2023-05-13T06:41:44.882Z,14.00
2023-05-13T06:44:12.653Z,14.20
2023-05-13T06:46:42.013Z,14.30
2023-05-13T06:49:12.015Z,14.40
2023-05-13T06:51:40.433Z,14.40
2023-05-13T06:54:08.524Z,14.50
2023-05-13T06:56:39.957Z,14.60
2023-05-13T06:59:08.794Z,14.60
2023-05-13T07:01:36.807Z,14.80
2023-05-13T07:04:06.472Z,14.90
2023-05-13T07:06:34.518Z,14.90
2023-05-13T07:09:05.363Z,15.20
2023-05-13T07:11:37.316Z,15.30
2023-05-13T07:14:05.410Z,15.40
2023-05-13T07:16:33.218Z,15.40
2023-05-13T07:19:01.349Z,15.40
2023-05-13T07:21:35.367Z,15.50
2023-05-13T07:24:05.208Z,15.60
2023-05-13T07:26:33.610Z,15.80
2023-05-13T07:29:02.125Z,15.80
2023-05-13T07:31:31.644Z,15.80
2023-05-13T07:33:59.910Z,15.80
2023-05-13T07:36:28.421Z,15.80
2023-05-13T07:38:57.466Z,15.90
2023-05-13T07:41:25.555Z,16.00
2023-05-13T07:43:55.012Z,16.10
2023-05-13T07:46:23.089Z,16.20
2023-05-13T07:48:50.819Z,16.20
2023-05-13T07:51:20.263Z,16.30
2023-05-13T07:53:49.476Z,16.40
2023-05-13T07:56:18.933Z,16.40
2023-05-13T07:58:46.976Z,16.40
2023-05-13T08:01:15.050Z,16.50
2023-05-13T08:03:46.184Z,16.50
2023-05-13T08:06:14.012Z,16.70
2023-05-13T08:08:43.704Z,16.90
2023-05-13T08:11:11.461Z,17.10
2023-05-13T08:13:41.158Z,17.40
2023-05-13T08:16:09.059Z,17.40
2023-05-13T08:18:37.618Z,17.80
2023-05-13T08:21:05.614Z,18.00
2023-05-13T08:23:44.092Z,18.30
2023-05-13T08:26:13.714Z,18.70
2023-05-13T08:28:42.994Z,19.10
2023-05-13T08:31:12.583Z,19.20
2023-05-13T08:33:42.009Z,19.30
2023-05-13T08:36:10.621Z,19.20
2023-05-13T08:38:39.185Z,19.40
2023-05-13T08:41:07.719Z,19.40
2023-05-13T08:43:35.957Z,19.60
2023-05-13T08:46:09.133Z,19.80
2023-05-13T08:48:39.227Z,19.90
2023-05-13T08:51:07.039Z,19.90
2023-05-13T08:53:36.402Z,19.80
2023-05-13T08:56:07.029Z,19.70
2023-05-13T08:58:39.309Z,19.90
2023-05-13T09:01:11.132Z,19.90
2023-05-13T09:03:53.208Z,20.00
2023-05-13T09:06:21.279Z,20.10
2023-05-13T09:08:49.406Z,20.30
2023-05-13T09:11:18.114Z,20.30
2023-05-13T09:13:46.134Z,20.30
2023-05-13T09:16:15.444Z,20.50
2023-05-13T09:18:44.812Z,20.60
2023-05-13T09:21:29.701Z,20.70
2023-05-13T09:24:11.407Z,20.80
2023-05-13T09:26:40.805Z,20.80
2023-05-13T09:29:19.337Z,21.00
2023-05-13T09:31:52.488Z,20.90
2023-05-13T09:37:19.815Z,21.10
2023-05-13T09:39:48.328Z,21.20
2023-05-13T09:42:18.766Z,21.20
2023-05-13T09:44:50.047Z,21.30
2023-05-13T09:47:23.020Z,21.30
2023-05-13T09:49:57.500Z,21.10
2023-05-13T09:52:27.871Z,21.00
2023-05-13T09:55:12.124Z,21.10
2023-05-13T09:57:42.148Z,20.90
2023-05-13T10:03:24.012Z,21.40
2023-05-13T10:05:57.055Z,21.60
2023-05-13T10:08:27.870Z,21.70
2023-05-13T10:11:01.785Z,21.90
2023-05-13T10:13:35.336Z,21.90
2023-05-13T10:16:04.446Z,22.00
2023-05-13T10:18:33.942Z,22.20
2023-05-13T10:21:02.766Z,22.30
2023-05-13T10:23:31.755Z,22.70
2023-05-13T10:26:04.927Z,23.10
2023-05-13T10:28:34.309Z,23.50
2023-05-13T10:31:02.008Z,23.50
2023-05-13T10:33:29.959Z,23.20
2023-05-13T10:36:11.332Z,22.80
2023-05-13T10:39:04.994Z,23.00
2023-05-13T10:41:56.872Z,23.00
2023-05-13T10:44:25.535Z,22.90
2023-05-13T10:46:53.709Z,22.60
2023-05-13T10:49:25.453Z,22.40
2023-05-13T10:52:05.714Z,22.60
2023-05-13T10:54:40.387Z,22.80
2023-05-13T10:57:09.782Z,22.60
2023-05-13T10:59:38.790Z,22.20
2023-05-13T11:02:22.218Z,22.30
2023-05-13T11:04:59.238Z,22.00
2023-05-13T11:07:30.235Z,21.80
2023-05-13T11:10:00.726Z,21.50
2023-05-13T11:12:29.103Z,21.60
2023-05-13T11:14:59.061Z,22.10
2023-05-13T11:17:27.766Z,22.20
2023-05-13T11:19:58.173Z,22.40
2023-05-13T11:23:08.815Z,22.30
2023-05-13T11:25:40.414Z,21.90
2023-05-13T11:28:09.387Z,22.60
2023-05-13T11:30:37.760Z,22.60
2023-05-13T11:33:12.336Z,22.80
2023-05-13T11:35:40.126Z,23.60
2023-05-13T11:38:08.272Z,24.20
2023-05-13T11:40:39.075Z,24.80
2023-05-13T11:43:07.194Z,25.10
2023-05-13T11:45:40.238Z,25.80
2023-05-13T11:48:20.699Z,25.80
2023-05-13T11:50:51.052Z,26.00
2023-05-13T11:53:23.344Z,26.50
2023-05-13T11:56:03.518Z,26.60
2023-05-13T11:58:33.537Z,26.70
2023-05-13T12:01:03.228Z,26.70
2023-05-13T12:03:33.930Z,26.90
2023-05-13T12:06:05.560Z,26.60
2023-05-13T12:08:34.626Z,26.50
2023-05-13T12:11:17.841Z,26.00
2023-05-13T12:13:46.606Z,25.80
2023-05-13T12:16:15.383Z,25.90
2023-05-13T12:18:45.456Z,26.10
2023-05-13T12:21:18.061Z,26.20
2023-05-13T12:23:47.250Z,26.00
2023-05-13T12:26:16.515Z,26.10
2023-05-13T12:28:44.638Z,26.50
2023-05-13T12:31:20.811Z,26.60
2023-05-13T12:33:53.070Z,27.00
2023-05-13T12:36:43.437Z,27.00
2023-05-13T12:39:12.894Z,27.00
2023-05-13T12:41:44.041Z,27.60
2023-05-13T12:44:17.569Z,28.00
2023-05-13T12:46:54.332Z,27.00
2023-05-13T12:49:27.830Z,25.80
2023-05-13T12:51:57.022Z,25.30
2023-05-13T12:54:27.157Z,25.70
2023-05-13T12:56:56.616Z,26.40
2023-05-13T12:59:25.623Z,27.30
2023-05-13T13:01:53.462Z,27.60
2023-05-13T13:04:21.414Z,27.00
2023-05-13T13:06:50.721Z,26.10
2023-05-13T13:09:20.496Z,25.40
2023-05-13T13:11:48.379Z,24.40
2023-05-13T13:14:19.304Z,23.70
2023-05-13T13:16:47.757Z,23.10
2023-05-13T13:19:18.028Z,22.60
2023-05-13T13:21:54.993Z,22.30
2023-05-13T13:41:19.194Z,22.10
2023-05-13T13:43:47.219Z,23.20
2023-05-13T13:46:22.400Z,22.90
2023-05-13T13:48:50.495Z,22.80
2023-05-13T13:51:19.216Z,23.50
2023-05-13T13:53:50.307Z,23.50
2023-05-13T13:56:20.213Z,23.70
2023-05-13T13:58:48.040Z,23.30
2023-05-13T14:01:26.070Z,22.90
2023-05-13T14:03:55.558Z,22.70
2023-05-13T14:06:23.576Z,22.30
2023-05-13T14:08:52.162Z,22.10
2023-05-13T14:11:22.126Z,21.90
2023-05-13T14:13:50.735Z,21.60
2023-05-13T14:16:18.691Z,21.40
2023-05-13T14:22:33.799Z,21.40
2023-05-13T14:25:02.049Z,21.50
2023-05-13T14:27:33.527Z,21.60
2023-05-13T14:30:01.461Z,21.70
2023-05-13T14:32:29.519Z,21.80
2023-05-13T14:34:58.517Z,21.90
2023-05-13T14:53:50.634Z,22.40
2023-05-13T14:56:19.224Z,24.20
2023-05-13T15:02:34.209Z,23.60
2023-05-13T15:05:07.753Z,23.60
2023-05-13T15:07:37.720Z,24.30
2023-05-13T15:10:09.015Z,24.40
2023-05-13T15:12:36.817Z,24.10
2023-05-13T15:15:06.851Z,24.00
2023-05-13T15:17:34.695Z,25.00
2023-05-13T15:20:12.692Z,25.30
2023-05-13T15:22:41.502Z,25.60
2023-05-13T15:25:10.438Z,24.90
2023-05-13T15:27:38.203Z,24.30
2023-05-13T15:30:09.180Z,24.00
2023-05-13T15:32:37.266Z,25.50
2023-05-13T15:35:07.372Z,25.00
2023-05-13T15:45:40.826Z,24.90
2023-05-13T15:48:09.060Z,24.90
2023-05-13T15:50:41.484Z,25.10
2023-05-13T15:53:10.499Z,25.10
2023-05-13T15:55:39.485Z,25.30
2023-05-13T15:58:07.726Z,25.00
2023-05-13T16:00:35.482Z,24.90
2023-05-13T16:03:04.096Z,24.90
2023-05-13T16:09:34.853Z,25.30
2023-05-13T16:16:11.611Z,25.20
2023-05-13T16:19:18.978Z,24.90
2023-05-13T16:22:29.179Z,25.00
2023-05-13T16:28:41.339Z,26.30
2023-05-13T16:31:27.692Z,26.20
2023-05-13T16:34:09.301Z,27.00
2023-05-13T16:37:23.698Z,25.90
2023-05-13T16:43:33.093Z,26.70
2023-05-13T16:46:40.048Z,26.80
2023-05-13T16:49:34.649Z,27.00
2023-05-13T16:52:45.327Z,26.50
2023-05-13T16:55:59.837Z,26.30
2023-05-13T16:59:02.715Z,26.90
2023-05-13T17:02:00.457Z,27.20
2023-05-13T17:05:11.717Z,27.60
2023-05-13T17:10:48.693Z,27.50
2023-05-13T17:13:46.141Z,28.10
2023-05-13T17:16:54.928Z,27.50
2023-05-13T17:20:30.965Z,26.70
2023-05-13T17:23:32.334Z,25.50
2023-05-13T17:29:56.948Z,24.30
2023-05-13T17:35:48.546Z,23.10
2023-05-13T17:39:17.490Z,22.40
2023-05-13T17:42:21.282Z,21.60
2023-05-13T17:49:05.194Z,20.50
2023-05-13T17:51:57.442Z,20.60
2023-05-13T18:01:21.982Z,19.50
2023-05-13T18:04:43.855Z,19.90
2023-05-13T18:18:41.267Z,20.40
2023-05-13T18:21:10.570Z,20.00
2023-05-13T18:23:38.282Z,19.90
2023-05-13T18:26:08.678Z,19.70
2023-05-13T18:28:37.787Z,19.30
2023-05-13T18:31:07.986Z,19.00
2023-05-13T18:34:00.346Z,18.70
2023-05-13T18:36:41.264Z,18.30
2023-05-13T18:39:09.907Z,17.90
2023-05-13T18:41:38.054Z,17.50
2023-05-13T18:44:07.231Z,17.40
2023-05-13T18:46:44.052Z,17.30
2023-05-13T18:49:33.252Z,17.20
2023-05-13T18:52:25.239Z,17.00
2023-05-13T18:55:06.244Z,16.90
2023-05-13T18:57:33.936Z,16.70
2023-05-13T19:00:04.689Z,16.70
2023-05-13T19:02:33.376Z,16.60
2023-05-13T19:05:01.489Z,16.60
2023-05-13T19:07:29.287Z,16.50
2023-05-13T19:09:57.372Z,16.50
2023-05-13T19:16:42.826Z,16.30
2023-05-13T19:19:11.632Z,16.30
2023-05-13T19:21:41.358Z,16.20
2023-05-13T19:24:09.174Z,16.20
2023-05-13T19:26:38.539Z,16.20
2023-05-13T19:29:09.049Z,16.10
2023-05-13T19:31:37.042Z,16.10
2023-05-13T19:34:21.889Z,16.10
2023-05-13T19:36:54.011Z,16.00
2023-05-13T19:39:22.048Z,15.90
2023-05-13T19:41:56.734Z,15.90
2023-05-13T19:49:38.713Z,15.90
2023-05-13T20:17:08.669Z,15.50
2023-05-13T20:23:06.486Z,15.40
2023-05-13T20:25:37.311Z,15.40
2023-05-13T20:28:21.732Z,15.40
2023-05-13T20:31:16.168Z,15.40
2023-05-13T20:34:50.409Z,15.30
2023-05-13T20:37:23.479Z,15.30
2023-05-13T20:40:32.451Z,15.30
2023-05-13T20:43:07.514Z,15.30
2023-05-13T20:46:46.636Z,15.30
2023-05-13T20:49:55.728Z,15.20
2023-05-13T21:22:57.669Z,14.90
2023-05-13T21:26:05.644Z,14.80
2023-05-13T21:28:34.107Z,14.80
2023-05-13T21:35:10.931Z,14.70
2023-05-13T21:38:29.214Z,14.70
2023-05-13T21:41:06.446Z,14.70
2023-05-13T21:43:47.101Z,14.60
2023-05-13T21:46:22.208Z,14.60
2023-05-13T21:48:53.710Z,14.50
2023-05-13T21:51:55.379Z,14.50
2023-05-13T21:54:23.436Z,14.50
2023-05-13T21:57:14.256Z,14.40
2023-05-13T22:00:16.487Z,14.40
2023-05-13T22:03:24.161Z,14.40
2023-05-13T22:05:54.619Z,14.30
2023-05-13T22:33:10.807Z,13.80
2023-05-13T22:38:38.634Z,13.80
2023-05-13T22:49:25.721Z,13.70
2023-05-13T22:52:22.045Z,13.70
2023-05-13T22:55:14.012Z,13.70
2023-05-13T23:07:06.464Z,13.60
2023-05-13T23:09:57.975Z,13.70
2023-05-13T23:12:51.168Z,13.70
2023-05-13T23:23:27.052Z,13.60
2023-05-13T23:26:37.157Z,13.60
2023-05-13T23:29:09.882Z,13.70
2023-05-13T23:31:49.791Z,13.60
2023-05-13T23:34:21.304Z,13.60
2023-05-13T23:36:57.404Z,13.60
2023-05-13T23:46:59.725Z,13.60
2023-05-13T23:49:27.959Z,13.60
2023-05-13T23:51:55.853Z,13.60
2023-05-13T23:54:24.935Z,13.60
2023-05-13T23:56:52.957Z,13.50
2023-05-13T23:59:21.023Z,13.50
